createdAt,value
2018-12-16T12:25:08.839Z,55.40
2018-12-16T12:27:38.326Z,58.10
2018-12-16T12:30:09.611Z,55.10
2018-12-16T12:32:38.387Z,54.60
2018-12-16T12:35:07.908Z,54.40
2018-12-16T12:37:37.732Z,54.00
2018-12-16T12:40:06.975Z,55.10
2018-12-16T12:42:35.311Z,53.90
2018-12-16T12:45:05.322Z,54.50
2018-12-16T12:47:33.783Z,54.20
2018-12-16T12:50:03.086Z,55.90
2018-12-16T12:52:32.819Z,53.50
2018-12-16T12:55:01.334Z,53.00
2018-12-16T12:57:30.274Z,53.20
2018-12-16T12:59:58.674Z,53.60
2018-12-16T13:02:27.790Z,52.50
2018-12-16T13:04:56.767Z,52.50
2018-12-16T13:07:26.578Z,52.30
2018-12-16T13:09:55.198Z,52.70
2018-12-16T13:12:23.748Z,52.90
2018-12-16T13:14:52.485Z,52.80
2018-12-16T13:17:21.048Z,53.20
2018-12-16T13:19:49.756Z,52.60
2018-12-16T13:22:18.221Z,52.70
2018-12-16T13:24:57.904Z,53.50
2018-12-16T13:27:26.443Z,53.10
2018-12-16T13:29:54.823Z,53.40
2018-12-16T13:32:24.862Z,52.90
2018-12-16T13:34:54.404Z,53.80
2018-12-16T13:37:22.991Z,53.40
2018-12-16T13:39:51.554Z,54.00
2018-12-16T13:42:20.170Z,53.90
2018-12-16T13:44:48.992Z,54.00
2018-12-16T13:47:17.336Z,54.80
2018-12-16T13:49:47.436Z,54.90
2018-12-16T13:52:17.177Z,54.20
2018-12-16T13:54:46.695Z,54.70
2018-12-16T13:57:15.107Z,54.10
2018-12-16T13:59:43.562Z,54.10
2018-12-16T14:02:12.391Z,54.40
2018-12-16T14:04:41.007Z,55.20
2018-12-16T14:07:10.070Z,54.60
2018-12-16T14:09:39.759Z,54.80
2018-12-16T14:12:10.266Z,55.80
2018-12-16T14:14:39.909Z,54.70
2018-12-16T14:17:10.437Z,56.30
2018-12-16T14:19:40.912Z,54.80
2018-12-16T14:22:09.775Z,57.20
2018-12-16T14:24:39.769Z,54.80
2018-12-16T14:27:08.855Z,56.90
2018-12-16T14:29:38.538Z,55.00
2018-12-16T14:32:07.078Z,57.30
2018-12-16T14:34:35.560Z,55.80
2018-12-16T14:37:03.989Z,55.50
2018-12-16T14:39:33.010Z,55.00
2018-12-16T14:42:01.419Z,55.30
2018-12-16T14:44:29.877Z,53.90
2018-12-16T14:46:58.324Z,54.10
2018-12-16T14:49:26.694Z,54.30
2018-12-16T14:51:55.184Z,54.20
2018-12-16T14:54:23.701Z,54.90
2018-12-16T14:56:52.139Z,54.70
2018-12-16T14:59:21.849Z,54.90
2018-12-16T15:01:50.225Z,54.80
2018-12-16T15:04:18.705Z,54.50
2018-12-16T15:06:47.116Z,54.70
2018-12-16T15:09:16.566Z,54.50
2018-12-16T15:11:45.051Z,55.00
2018-12-16T15:14:13.892Z,54.70
2018-12-16T15:16:42.350Z,54.60
2018-12-16T15:19:10.926Z,54.60
2018-12-16T15:21:39.688Z,54.70
2018-12-16T15:24:09.220Z,54.70
2018-12-16T15:26:37.672Z,54.80
2018-12-16T15:29:06.009Z,54.70
2018-12-16T15:31:35.449Z,55.20
2018-12-16T15:34:04.204Z,55.30
2018-12-16T15:36:32.956Z,55.30
2018-12-16T15:39:01.614Z,55.70
2018-12-16T15:41:30.223Z,55.40
2018-12-16T15:43:59.393Z,55.40
2018-12-16T15:46:27.973Z,55.60
2018-12-16T15:48:56.387Z,55.90
2018-12-16T15:51:25.192Z,55.70
2018-12-16T15:53:54.074Z,55.70
2018-12-16T15:56:22.807Z,55.70
2018-12-16T15:58:51.265Z,55.70
2018-12-16T16:01:19.611Z,55.80
2018-12-16T16:03:47.914Z,55.90
2018-12-16T16:06:16.891Z,56.10
2018-12-16T16:08:46.059Z,56.20
2018-12-16T16:11:14.459Z,56.30
2018-12-16T16:13:42.942Z,56.40
2018-12-16T16:16:11.422Z,56.20
2018-12-16T16:18:39.699Z,56.20
2018-12-16T16:21:08.252Z,56.30
2018-12-16T16:23:38.334Z,56.50
2018-12-16T16:26:07.004Z,56.50
2018-12-16T16:28:36.453Z,56.70
2018-12-16T16:31:05.105Z,56.70
2018-12-16T16:33:34.101Z,56.80
2018-12-16T16:36:03.450Z,56.80
2018-12-16T16:38:31.860Z,57.00
2018-12-16T16:41:00.359Z,57.10
2018-12-16T16:43:29.037Z,57.10
2018-12-16T16:45:57.425Z,56.90
2018-12-16T16:48:25.853Z,56.90
2018-12-16T16:50:54.207Z,57.00
2018-12-16T16:53:22.610Z,57.20
2018-12-16T16:55:51.091Z,57.20
2018-12-16T16:58:19.491Z,57.90
2018-12-16T17:00:47.876Z,57.20
2018-12-16T17:03:17.178Z,57.30
2018-12-16T17:05:45.754Z,57.30
2018-12-16T17:08:14.141Z,57.60
2018-12-16T17:10:42.717Z,57.60
2018-12-16T17:13:11.307Z,57.40
2018-12-16T17:15:39.784Z,57.60
2018-12-16T17:18:08.287Z,57.50
2018-12-16T17:20:36.861Z,57.60
2018-12-16T17:23:05.721Z,57.50
2018-12-16T17:25:34.107Z,57.60
2018-12-16T17:28:02.557Z,57.80
2018-12-16T17:30:31.390Z,57.70
2018-12-16T17:33:00.297Z,57.70
2018-12-16T17:35:28.764Z,57.70
2018-12-16T17:37:57.159Z,57.70
2018-12-16T17:40:25.569Z,58.00
2018-12-16T17:42:54.530Z,58.00
2018-12-16T17:45:23.017Z,57.90
2018-12-16T17:47:51.439Z,57.70
2018-12-16T17:50:19.770Z,57.80
2018-12-16T17:52:48.359Z,57.90
2018-12-16T17:55:16.909Z,57.70
2018-12-16T17:57:45.456Z,57.60
2018-12-16T18:00:14.706Z,57.80
2018-12-16T18:02:47.386Z,57.60
2018-12-16T18:05:16.038Z,57.70
2018-12-16T18:07:45.645Z,57.50
2018-12-16T18:10:14.873Z,57.30
2018-12-16T18:12:45.633Z,57.40
2018-12-16T18:15:14.101Z,57.70
2018-12-16T18:17:42.468Z,58.00
2018-12-16T18:20:11.313Z,57.90
2018-12-16T18:22:40.307Z,57.90
2018-12-16T18:25:08.856Z,57.80
2018-12-16T18:27:37.315Z,58.00
2018-12-16T18:30:08.178Z,58.10
2018-12-16T18:32:37.010Z,58.40
2018-12-16T18:35:06.232Z,58.20
2018-12-16T18:37:34.653Z,58.30
2018-12-16T18:40:03.991Z,58.30
2018-12-16T18:42:32.670Z,58.40
2018-12-16T18:45:01.154Z,58.40
2018-12-16T18:47:29.802Z,58.20
2018-12-16T18:49:58.285Z,58.20
2018-12-16T18:52:26.825Z,58.30
2018-12-16T18:54:55.190Z,58.30
2018-12-16T18:57:23.655Z,58.00
2018-12-16T18:59:52.387Z,58.50
2018-12-16T19:02:20.801Z,58.20
2018-12-16T19:04:49.190Z,58.30
2018-12-16T19:07:17.971Z,58.30
2018-12-16T19:09:46.403Z,58.30
2018-12-16T19:12:14.749Z,58.40
2018-12-16T19:14:43.896Z,58.30
2018-12-16T19:17:12.148Z,58.60
2018-12-16T19:19:40.632Z,58.50
2018-12-16T19:22:09.094Z,57.90
2018-12-16T19:24:38.165Z,58.30
2018-12-16T19:27:06.612Z,58.20
2018-12-16T19:29:35.586Z,58.30
2018-12-16T19:32:04.124Z,58.30
2018-12-16T19:34:32.724Z,58.20
2018-12-16T19:37:01.305Z,58.40
2018-12-16T19:39:31.257Z,58.40
2018-12-16T19:42:06.350Z,58.50
2018-12-16T19:44:35.624Z,58.40
2018-12-16T19:47:04.343Z,58.40
2018-12-16T19:49:33.714Z,58.40
2018-12-16T19:52:02.490Z,58.50
2018-12-16T19:54:31.159Z,58.50
2018-12-16T19:57:05.102Z,58.80
2018-12-16T19:59:30.318Z,59.00
2018-12-16T20:01:58.682Z,59.20
2018-12-16T20:04:31.433Z,59.50
2018-12-16T20:07:00.020Z,59.40
2018-12-16T20:09:29.933Z,59.50
2018-12-16T20:11:59.444Z,59.40
2018-12-16T20:14:27.975Z,59.40
2018-12-16T20:16:56.562Z,59.30
2018-12-16T20:19:25.601Z,59.60
2018-12-16T20:21:54.033Z,59.60
2018-12-16T20:24:23.656Z,59.50
2018-12-16T20:26:52.953Z,59.40
2018-12-16T20:29:21.442Z,59.50
2018-12-16T20:31:57.350Z,59.70
2018-12-16T20:34:25.700Z,60.10
2018-12-16T20:36:54.727Z,60.40
2018-12-16T20:39:24.187Z,60.70
2018-12-16T20:41:52.658Z,61.10
2018-12-16T20:44:21.044Z,61.60
2018-12-16T20:46:49.468Z,61.90
2018-12-16T20:49:18.012Z,62.20
2018-12-16T20:51:46.391Z,62.80
2018-12-16T20:54:14.730Z,62.90
2018-12-16T20:56:43.200Z,63.40
2018-12-16T20:59:11.589Z,63.70
2018-12-16T21:01:39.952Z,64.10
2018-12-16T21:04:08.418Z,64.40
2018-12-16T21:06:36.963Z,64.70
2018-12-16T21:09:07.563Z,64.90
2018-12-16T21:11:41.612Z,64.90
2018-12-16T21:14:15.378Z,65.30
2018-12-16T21:16:49.249Z,65.40
2018-12-16T21:19:17.706Z,65.60
2018-12-16T21:21:46.084Z,65.70
2018-12-16T21:24:14.608Z,66.00
2018-12-16T21:26:43.589Z,65.90
2018-12-16T21:29:11.974Z,66.10
2018-12-16T21:31:40.423Z,66.40
2018-12-16T21:34:08.971Z,66.40
2018-12-16T21:36:37.415Z,66.70
2018-12-16T21:39:07.051Z,66.80
2018-12-16T21:41:35.465Z,66.90
2018-12-16T21:44:04.100Z,66.70
2018-12-16T21:46:32.687Z,66.80
2018-12-16T21:49:01.424Z,67.10
2018-12-16T21:51:29.902Z,67.00
2018-12-16T21:53:58.289Z,67.00
2018-12-16T21:56:26.896Z,67.60
2018-12-16T21:58:55.224Z,67.40
2018-12-16T22:01:23.833Z,67.60
2018-12-16T22:03:52.404Z,67.60
2018-12-16T22:06:20.704Z,67.40
2018-12-16T22:08:48.995Z,67.50
2018-12-16T22:11:17.437Z,67.70
2018-12-16T22:13:45.760Z,67.90
2018-12-16T22:16:14.219Z,68.10
2018-12-16T22:18:42.515Z,68.20
2018-12-16T22:21:11.040Z,68.40
2018-12-16T22:23:39.358Z,68.50
2018-12-16T22:26:08.102Z,68.50
2018-12-16T22:28:36.367Z,68.70
2018-12-16T22:31:04.711Z,68.60
2018-12-16T22:33:33.338Z,69.00
2018-12-16T22:36:01.778Z,69.10
2018-12-16T22:38:30.271Z,69.30
2018-12-16T22:40:59.355Z,69.40
2018-12-16T22:43:27.890Z,69.60
2018-12-16T22:45:58.783Z,69.60
2018-12-16T22:48:28.022Z,69.50
2018-12-16T22:50:56.488Z,69.60
2018-12-16T22:53:24.923Z,69.70
2018-12-16T22:55:53.326Z,69.70
2018-12-16T22:58:21.651Z,70.00
2018-12-16T23:00:55.972Z,70.00
2018-12-16T23:03:24.505Z,70.00
2018-12-16T23:05:54.826Z,70.30
2018-12-16T23:08:23.162Z,70.30
2018-12-16T23:10:51.645Z,70.40
2018-12-16T23:13:20.207Z,70.50
2018-12-16T23:15:48.579Z,71.10
2018-12-16T23:18:17.034Z,71.00
2018-12-16T23:20:45.375Z,70.70
2018-12-16T23:23:13.682Z,70.70
2018-12-16T23:25:42.043Z,70.80
2018-12-16T23:28:10.605Z,70.90
2018-12-16T23:30:39.183Z,70.80
2018-12-16T23:33:07.558Z,71.10
2018-12-16T23:35:35.863Z,71.30
2018-12-16T23:38:04.253Z,71.20
2018-12-16T23:40:32.977Z,71.00
2018-12-16T23:43:01.320Z,71.20
2018-12-16T23:45:29.673Z,71.10
2018-12-16T23:47:58.093Z,71.30
2018-12-16T23:50:26.347Z,71.30
2018-12-16T23:52:54.857Z,71.50
2018-12-16T23:55:23.785Z,71.40
2018-12-16T23:57:52.162Z,71.60
